sensor_id;sensor_type;location;lat;lon;timestamp;P1;durP1;ratioP1;P2;durP2;ratioP2
41943;SDS011;27636;52.610;13.244;2024-02-23T00:04:58;2.35;;;0.90;;
41943;SDS011;27636;52.610;13.244;2024-02-23T00:10:02;0.90;;;0.70;;
41943;SDS011;27636;52.610;13.244;2024-02-23T00:15:07;1.17;;;0.77;;
41943;SDS011;27636;52.610;13.244;2024-02-23T00:20:13;3.13;;;1.15;;
41943;SDS011;27636;52.610;13.244;2024-02-23T00:25:18;1.45;;;0.82;;
41943;SDS011;27636;52.610;13.244;2024-02-23T00:30:23;1.67;;;0.90;;
41943;SDS011;27636;52.610;13.244;2024-02-23T00:35:30;1.13;;;0.73;;
41943;SDS011;27636;52.610;13.244;2024-02-23T00:40:34;2.40;;;0.85;;
41943;SDS011;27636;52.610;13.244;2024-02-23T00:50:48;2.90;;;0.90;;
41943;SDS011;27636;52.610;13.244;2024-02-23T00:55:52;3.30;;;0.77;;
41943;SDS011;27636;52.610;13.244;2024-02-23T01:00:56;1.60;;;1.00;;
41943;SDS011;27636;52.610;13.244;2024-02-23T01:06:01;0.98;;;0.55;;
41943;SDS011;27636;52.610;13.244;2024-02-23T01:11:06;2.80;;;0.95;;
41943;SDS011;27636;52.610;13.244;2024-02-23T01:16:09;1.80;;;1.05;;
41943;SDS011;27636;52.610;13.244;2024-02-23T01:21:14;2.05;;;0.80;;
41943;SDS011;27636;52.610;13.244;2024-02-23T01:26:22;0.60;;;0.50;;
41943;SDS011;27636;52.610;13.244;2024-02-23T01:31:26;1.73;;;1.00;;
41943;SDS011;27636;52.610;13.244;2024-02-23T01:36:31;1.42;;;1.02;;
41943;SDS011;27636;52.610;13.244;2024-02-23T01:41:35;2.05;;;0.98;;
41943;SDS011;27636;52.610;13.244;2024-02-23T01:46:39;2.17;;;1.30;;
41943;SDS011;27636;52.610;13.244;2024-02-23T01:51:51;3.85;;;0.98;;
41943;SDS011;27636;52.610;13.244;2024-02-23T01:56:56;1.85;;;0.90;;
41943;SDS011;27636;52.610;13.244;2024-02-23T02:02:12;1.40;;;0.90;;
41943;SDS011;27636;52.610;13.244;2024-02-23T02:07:19;1.35;;;0.75;;
41943;SDS011;27636;52.610;13.244;2024-02-23T02:12:26;0.80;;;0.40;;
41943;SDS011;27636;52.610;13.244;2024-02-23T02:17:31;0.85;;;0.45;;
41943;SDS011;27636;52.610;13.244;2024-02-23T02:22:41;2.33;;;0.75;;
41943;SDS011;27636;52.610;13.244;2024-02-23T02:27:45;0.47;;;0.47;;
41943;SDS011;27636;52.610;13.244;2024-02-23T02:32:51;1.10;;;0.50;;
41943;SDS011;27636;52.610;13.244;2024-02-23T02:37:56;0.75;;;0.47;;
41943;SDS011;27636;52.610;13.244;2024-02-23T02:43:01;2.10;;;0.70;;
41943;SDS011;27636;52.610;13.244;2024-02-23T02:48:06;1.73;;;0.32;;
41943;SDS011;27636;52.610;13.244;2024-02-23T02:58:18;0.75;;;0.20;;
41943;SDS011;27636;52.610;13.244;2024-02-23T03:08:28;0.30;;;0.30;;
41943;SDS011;27636;52.610;13.244;2024-02-23T03:18:38;0.30;;;0.22;;
41943;SDS011;27636;52.610;13.244;2024-02-23T03:23:44;0.20;;;0.20;;
41943;SDS011;27636;52.610;13.244;2024-02-23T03:28:49;0.90;;;0.30;;
41943;SDS011;27636;52.610;13.244;2024-02-23T03:33:52;1.05;;;0.40;;
41943;SDS011;27636;52.610;13.244;2024-02-23T03:38:58;2.40;;;0.35;;
41943;SDS011;27636;52.610;13.244;2024-02-23T03:44:01;0.63;;;0.50;;
41943;SDS011;27636;52.610;13.244;2024-02-23T03:49:06;0.57;;;0.27;;
41943;SDS011;27636;52.610;13.244;2024-02-23T03:54:12;0.68;;;0.22;;
41943;SDS011;27636;52.610;13.244;2024-02-23T03:59:16;0.52;;;0.30;;
41943;SDS011;27636;52.610;13.244;2024-02-23T04:04:20;11.15;;;0.52;;
41943;SDS011;27636;52.610;13.244;2024-02-23T04:09:25;0.60;;;0.32;;
41943;SDS011;27636;52.610;13.244;2024-02-23T04:14:29;1.23;;;0.28;;
41943;SDS011;27636;52.610;13.244;2024-02-23T04:19:33;0.40;;;0.30;;
41943;SDS011;27636;52.610;13.244;2024-02-23T04:24:39;0.22;;;0.22;;
41943;SDS011;27636;52.610;13.244;2024-02-23T04:29:43;2.80;;;1.38;;
41943;SDS011;27636;52.610;13.244;2024-02-23T04:34:47;0.43;;;0.38;;
41943;SDS011;27636;52.610;13.244;2024-02-23T04:39:53;3.05;;;0.50;;
41943;SDS011;27636;52.610;13.244;2024-02-23T04:44:56;0.32;;;0.30;;
41943;SDS011;27636;52.610;13.244;2024-02-23T04:50:00;0.80;;;0.40;;
41943;SDS011;27636;52.610;13.244;2024-02-23T04:55:06;0.30;;;0.30;;
41943;SDS011;27636;52.610;13.244;2024-02-23T05:00:11;0.25;;;0.20;;
41943;SDS011;27636;52.610;13.244;2024-02-23T05:05:15;0.40;;;0.20;;
41943;SDS011;27636;52.610;13.244;2024-02-23T05:10:21;0.40;;;0.40;;
41943;SDS011;27636;52.610;13.244;2024-02-23T05:15:25;0.30;;;0.28;;
41943;SDS011;27636;52.610;13.244;2024-02-23T05:20:31;0.20;;;0.20;;
41943;SDS011;27636;52.610;13.244;2024-02-23T05:25:37;0.35;;;0.35;;
41943;SDS011;27636;52.610;13.244;2024-02-23T05:30:41;1.08;;;0.38;;
41943;SDS011;27636;52.610;13.244;2024-02-23T05:35:45;0.30;;;0.30;;
41943;SDS011;27636;52.610;13.244;2024-02-23T05:40:51;0.98;;;0.40;;
41943;SDS011;27636;52.610;13.244;2024-02-23T05:56:13;0.57;;;0.50;;
41943;SDS011;27636;52.610;13.244;2024-02-23T06:01:17;0.77;;;0.47;;
41943;SDS011;27636;52.610;13.244;2024-02-23T06:06:21;1.13;;;0.43;;
41943;SDS011;27636;52.610;13.244;2024-02-23T06:11:28;0.65;;;0.30;;
41943;SDS011;27636;52.610;13.244;2024-02-23T06:16:32;0.28;;;0.25;;
41943;SDS011;27636;52.610;13.244;2024-02-23T06:21:36;0.32;;;0.30;;
41943;SDS011;27636;52.610;13.244;2024-02-23T06:26:42;1.15;;;0.57;;
41943;SDS011;27636;52.610;13.244;2024-02-23T06:31:45;1.67;;;0.63;;
41943;SDS011;27636;52.610;13.244;2024-02-23T06:36:52;1.08;;;0.50;;
41943;SDS011;27636;52.610;13.244;2024-02-23T06:41:58;0.88;;;0.52;;
41943;SDS011;27636;52.610;13.244;2024-02-23T06:47:03;0.30;;;0.30;;
41943;SDS011;27636;52.610;13.244;2024-02-23T06:52:08;0.30;;;0.30;;
41943;SDS011;27636;52.610;13.244;2024-02-23T06:57:14;0.60;;;0.52;;
41943;SDS011;27636;52.610;13.244;2024-02-23T07:02:20;1.08;;;0.68;;
41943;SDS011;27636;52.610;13.244;2024-02-23T07:07:24;0.40;;;0.40;;
41943;SDS011;27636;52.610;13.244;2024-02-23T07:12:33;0.30;;;0.30;;
41943;SDS011;27636;52.610;13.244;2024-02-23T07:17:36;0.80;;;0.47;;
41943;SDS011;27636;52.610;13.244;2024-02-23T07:22:42;0.90;;;0.60;;
41943;SDS011;27636;52.610;13.244;2024-02-23T07:27:48;2.20;;;0.55;;
41943;SDS011;27636;52.610;13.244;2024-02-23T07:32:52;2.45;;;1.38;;
41943;SDS011;27636;52.610;13.244;2024-02-23T07:37:56;22.83;;;1.35;;
41943;SDS011;27636;52.610;13.244;2024-02-23T07:43:01;0.47;;;0.47;;
41943;SDS011;27636;52.610;13.244;2024-02-23T07:48:04;2.20;;;0.90;;
41943;SDS011;27636;52.610;13.244;2024-02-23T07:53:09;0.67;;;0.43;;
41943;SDS011;27636;52.610;13.244;2024-02-23T07:58:14;0.40;;;0.40;;
41943;SDS011;27636;52.610;13.244;2024-02-23T08:03:18;0.52;;;0.40;;
41943;SDS011;27636;52.610;13.244;2024-02-23T08:08:21;1.48;;;0.70;;
41943;SDS011;27636;52.610;13.244;2024-02-23T08:13:28;0.68;;;0.45;;
41943;SDS011;27636;52.610;13.244;2024-02-23T08:18:32;0.40;;;0.40;;
41943;SDS011;27636;52.610;13.244;2024-02-23T08:23:36;0.35;;;0.35;;
41943;SDS011;27636;52.610;13.244;2024-02-23T08:28:41;1.17;;;0.55;;
41943;SDS011;27636;52.610;13.244;2024-02-23T08:33:45;1.30;;;0.50;;
41943;SDS011;27636;52.610;13.244;2024-02-23T08:38:50;0.47;;;0.47;;
41943;SDS011;27636;52.610;13.244;2024-02-23T08:43:55;1.27;;;0.65;;
41943;SDS011;27636;52.610;13.244;2024-02-23T08:48:59;0.95;;;0.63;;
41943;SDS011;27636;52.610;13.244;2024-02-23T08:54:03;0.32;;;0.30;;
41943;SDS011;27636;52.610;13.244;2024-02-23T08:59:10;0.30;;;0.30;;
41943;SDS011;27636;52.610;13.244;2024-02-23T09:04:13;2.30;;;0.65;;
41943;SDS011;27636;52.610;13.244;2024-02-23T09:09:17;1.48;;;0.63;;
41943;SDS011;27636;52.610;13.244;2024-02-23T09:14:23;2.87;;;0.40;;
41943;SDS011;27636;52.610;13.244;2024-02-23T09:19:28;1.27;;;0.68;;
41943;SDS011;27636;52.610;13.244;2024-02-23T09:24:32;1.27;;;0.93;;
41943;SDS011;27636;52.610;13.244;2024-02-23T09:29:37;3.13;;;0.50;;
41943;SDS011;27636;52.610;13.244;2024-02-23T09:34:41;0.30;;;0.30;;
41943;SDS011;27636;52.610;13.244;2024-02-23T09:39:45;0.93;;;0.30;;
41943;SDS011;27636;52.610;13.244;2024-02-23T09:44:50;0.22;;;0.22;;
41943;SDS011;27636;52.610;13.244;2024-02-23T09:50:02;0.40;;;0.40;;
41943;SDS011;27636;52.610;13.244;2024-02-23T09:55:07;1.33;;;0.50;;
41943;SDS011;27636;52.610;13.244;2024-02-23T10:00:13;1.88;;;0.70;;
41943;SDS011;27636;52.610;13.244;2024-02-23T10:05:20;1.45;;;0.30;;
41943;SDS011;27636;52.610;13.244;2024-02-23T10:10:37;0.55;;;0.30;;
41943;SDS011;27636;52.610;13.244;2024-02-23T10:15:44;2.08;;;0.47;;
41943;SDS011;27636;52.610;13.244;2024-02-23T10:21:08;0.60;;;0.30;;
41943;SDS011;27636;52.610;13.244;2024-02-23T10:26:12;0.32;;;0.30;;
41943;SDS011;27636;52.610;13.244;2024-02-23T10:31:17;0.40;;;0.30;;
41943;SDS011;27636;52.610;13.244;2024-02-23T10:36:21;0.20;;;0.20;;
41943;SDS011;27636;52.610;13.244;2024-02-23T10:41:32;1.92;;;0.40;;
41943;SDS011;27636;52.610;13.244;2024-02-23T10:46:39;0.20;;;0.20;;
41943;SDS011;27636;52.610;13.244;2024-02-23T10:51:44;0.52;;;0.30;;
41943;SDS011;27636;52.610;13.244;2024-02-23T10:56:50;0.75;;;0.30;;
41943;SDS011;27636;52.610;13.244;2024-02-23T11:01:56;0.93;;;0.30;;
41943;SDS011;27636;52.610;13.244;2024-02-23T11:07:03;0.20;;;0.20;;
41943;SDS011;27636;52.610;13.244;2024-02-23T11:12:11;0.35;;;0.20;;
41943;SDS011;27636;52.610;13.244;2024-02-23T11:17:27;2.53;;;0.90;;
41943;SDS011;27636;52.610;13.244;2024-02-23T11:22:33;2.40;;;0.60;;
41943;SDS011;27636;52.610;13.244;2024-02-23T11:27:41;1.55;;;0.30;;
41943;SDS011;27636;52.610;13.244;2024-02-23T11:32:48;3.53;;;0.77;;
41943;SDS011;27636;52.610;13.244;2024-02-23T11:37:52;0.47;;;0.47;;
41943;SDS011;27636;52.610;13.244;2024-02-23T11:43:07;0.98;;;0.22;;
41943;SDS011;27636;52.610;13.244;2024-02-23T11:48:13;3.42;;;0.50;;
41943;SDS011;27636;52.610;13.244;2024-02-23T11:53:16;0.52;;;0.40;;
41943;SDS011;27636;52.610;13.244;2024-02-23T11:58:22;1.55;;;0.60;;
41943;SDS011;27636;52.610;13.244;2024-02-23T12:03:28;1.52;;;0.40;;
41943;SDS011;27636;52.610;13.244;2024-02-23T12:08:32;0.75;;;0.50;;
41943;SDS011;27636;52.610;13.244;2024-02-23T12:13:42;3.22;;;0.40;;
41943;SDS011;27636;52.610;13.244;2024-02-23T12:18:53;1.38;;;0.38;;
41943;SDS011;27636;52.610;13.244;2024-02-23T12:23:58;0.82;;;0.30;;
41943;SDS011;27636;52.610;13.244;2024-02-23T12:29:03;0.22;;;0.20;;
41943;SDS011;27636;52.610;13.244;2024-02-23T12:34:10;2.75;;;0.60;;
41943;SDS011;27636;52.610;13.244;2024-02-23T12:39:15;0.43;;;0.30;;
41943;SDS011;27636;52.610;13.244;2024-02-23T12:44:18;1.08;;;0.40;;
41943;SDS011;27636;52.610;13.244;2024-02-23T12:49:24;0.40;;;0.40;;
41943;SDS011;27636;52.610;13.244;2024-02-23T12:54:28;0.20;;;0.20;;
41943;SDS011;27636;52.610;13.244;2024-02-23T12:59:32;0.65;;;0.30;;
41943;SDS011;27636;52.610;13.244;2024-02-23T13:04:37;0.52;;;0.30;;
41943;SDS011;27636;52.610;13.244;2024-02-23T13:09:41;0.63;;;0.32;;
41943;SDS011;27636;52.610;13.244;2024-02-23T13:14:44;0.65;;;0.32;;
41943;SDS011;27636;52.610;13.244;2024-02-23T13:19:49;1.73;;;0.63;;
41943;SDS011;27636;52.610;13.244;2024-02-23T13:25:07;0.60;;;0.30;;
41943;SDS011;27636;52.610;13.244;2024-02-23T13:30:11;0.40;;;0.30;;
41943;SDS011;27636;52.610;13.244;2024-02-23T13:35:17;1.85;;;0.63;;
41943;SDS011;27636;52.610;13.244;2024-02-23T13:40:21;1.13;;;0.52;;
41943;SDS011;27636;52.610;13.244;2024-02-23T13:45:24;0.57;;;0.38;;
41943;SDS011;27636;52.610;13.244;2024-02-23T13:50:30;0.43;;;0.38;;
41943;SDS011;27636;52.610;13.244;2024-02-23T13:55:34;2.33;;;0.43;;
41943;SDS011;27636;52.610;13.244;2024-02-23T14:00:37;0.88;;;0.60;;
41943;SDS011;27636;52.610;13.244;2024-02-23T14:05:42;2.03;;;0.52;;
41943;SDS011;27636;52.610;13.244;2024-02-23T14:10:48;1.40;;;0.82;;
41943;SDS011;27636;52.610;13.244;2024-02-23T14:15:51;0.88;;;0.45;;
41943;SDS011;27636;52.610;13.244;2024-02-23T14:20:56;0.93;;;0.40;;
41943;SDS011;27636;52.610;13.244;2024-02-23T14:26:00;4.25;;;0.57;;
41943;SDS011;27636;52.610;13.244;2024-02-23T14:31:04;2.65;;;0.30;;
41943;SDS011;27636;52.610;13.244;2024-02-23T14:36:09;2.22;;;0.52;;
41943;SDS011;27636;52.610;13.244;2024-02-23T14:41:12;1.02;;;0.52;;
41943;SDS011;27636;52.610;13.244;2024-02-23T14:46:16;4.85;;;0.30;;
41943;SDS011;27636;52.610;13.244;2024-02-23T14:51:21;12.13;;;1.08;;
41943;SDS011;27636;52.610;13.244;2024-02-23T14:56:25;0.93;;;0.50;;
41943;SDS011;27636;52.610;13.244;2024-02-23T15:01:29;0.95;;;0.60;;
41943;SDS011;27636;52.610;13.244;2024-02-23T15:06:34;0.55;;;0.50;;
41943;SDS011;27636;52.610;13.244;2024-02-23T15:11:41;1.05;;;0.55;;
41943;SDS011;27636;52.610;13.244;2024-02-23T15:16:45;0.80;;;0.57;;
41943;SDS011;27636;52.610;13.244;2024-02-23T15:21:51;1.88;;;0.88;;
41943;SDS011;27636;52.610;13.244;2024-02-23T15:26:57;0.20;;;0.20;;
41943;SDS011;27636;52.610;13.244;2024-02-23T15:32:01;1.13;;;0.68;;
41943;SDS011;27636;52.610;13.244;2024-02-23T15:37:06;0.50;;;0.50;;
41943;SDS011;27636;52.610;13.244;2024-02-23T15:42:10;3.25;;;0.82;;
41943;SDS011;27636;52.610;13.244;2024-02-23T15:47:16;2.00;;;0.70;;
41943;SDS011;27636;52.610;13.244;2024-02-23T15:52:21;2.95;;;0.40;;
41943;SDS011;27636;52.610;13.244;2024-02-23T16:02:29;2.30;;;1.08;;
41943;SDS011;27636;52.610;13.244;2024-02-23T16:07:35;1.23;;;0.98;;
41943;SDS011;27636;52.610;13.244;2024-02-23T16:12:39;4.32;;;0.70;;
41943;SDS011;27636;52.610;13.244;2024-02-23T16:17:43;1.23;;;0.50;;
41943;SDS011;27636;52.610;13.244;2024-02-23T16:22:48;0.68;;;0.52;;
41943;SDS011;27636;52.610;13.244;2024-02-23T16:27:54;0.55;;;0.38;;
41943;SDS011;27636;52.610;13.244;2024-02-23T16:32:58;1.05;;;0.68;;
41943;SDS011;27636;52.610;13.244;2024-02-23T16:38:03;2.42;;;0.35;;
41943;SDS011;27636;52.610;13.244;2024-02-23T16:43:07;2.10;;;0.75;;
41943;SDS011;27636;52.610;13.244;2024-02-23T16:48:10;1.17;;;0.50;;
41943;SDS011;27636;52.610;13.244;2024-02-23T16:53:16;4.38;;;1.60;;
41943;SDS011;27636;52.610;13.244;2024-02-23T16:58:20;1.15;;;0.98;;
41943;SDS011;27636;52.610;13.244;2024-02-23T17:03:25;1.40;;;0.60;;
41943;SDS011;27636;52.610;13.244;2024-02-23T17:08:31;1.55;;;0.65;;
41943;SDS011;27636;52.610;13.244;2024-02-23T17:18:38;3.55;;;0.52;;
41943;SDS011;27636;52.610;13.244;2024-02-23T17:23:44;0.65;;;0.55;;
41943;SDS011;27636;52.610;13.244;2024-02-23T17:28:47;1.15;;;0.65;;
41943;SDS011;27636;52.610;13.244;2024-02-23T17:33:54;4.03;;;0.80;;
41943;SDS011;27636;52.610;13.244;2024-02-23T17:38:59;1.42;;;0.70;;
41943;SDS011;27636;52.610;13.244;2024-02-23T17:49:06;2.95;;;1.35;;
41943;SDS011;27636;52.610;13.244;2024-02-23T17:54:13;2.80;;;1.63;;
41943;SDS011;27636;52.610;13.244;2024-02-23T17:59:18;1.30;;;0.73;;
41943;SDS011;27636;52.610;13.244;2024-02-23T18:04:22;2.50;;;1.10;;
41943;SDS011;27636;52.610;13.244;2024-02-23T18:09:27;2.75;;;0.93;;
41943;SDS011;27636;52.610;13.244;2024-02-23T18:14:32;2.50;;;1.02;;
41943;SDS011;27636;52.610;13.244;2024-02-23T18:19:36;1.77;;;0.90;;
41943;SDS011;27636;52.610;13.244;2024-02-23T18:24:42;3.97;;;0.80;;
41943;SDS011;27636;52.610;13.244;2024-02-23T18:29:46;0.80;;;0.50;;
41943;SDS011;27636;52.610;13.244;2024-02-23T18:34:50;4.47;;;0.87;;
41943;SDS011;27636;52.610;13.244;2024-02-23T18:39:56;0.47;;;0.40;;
41943;SDS011;27636;52.610;13.244;2024-02-23T18:44:59;3.03;;;1.40;;
41943;SDS011;27636;52.610;13.244;2024-02-23T18:50:04;6.55;;;1.92;;
41943;SDS011;27636;52.610;13.244;2024-02-23T18:55:10;11.33;;;2.07;;
41943;SDS011;27636;52.610;13.244;2024-02-23T19:00:14;4.40;;;1.50;;
41943;SDS011;27636;52.610;13.244;2024-02-23T19:05:18;3.43;;;1.30;;
41943;SDS011;27636;52.610;13.244;2024-02-23T19:10:24;3.92;;;1.95;;
41943;SDS011;27636;52.610;13.244;2024-02-23T19:15:27;5.05;;;1.83;;
41943;SDS011;27636;52.610;13.244;2024-02-23T19:20:31;3.78;;;1.50;;
41943;SDS011;27636;52.610;13.244;2024-02-23T19:25:36;4.05;;;1.75;;
41943;SDS011;27636;52.610;13.244;2024-02-23T19:35:46;4.38;;;1.50;;
41943;SDS011;27636;52.610;13.244;2024-02-23T19:40:51;2.22;;;1.25;;
41943;SDS011;27636;52.610;13.244;2024-02-23T19:45:55;3.97;;;1.40;;
41943;SDS011;27636;52.610;13.244;2024-02-23T19:51:13;2.10;;;1.30;;
41943;SDS011;27636;52.610;13.244;2024-02-23T19:56:18;2.23;;;1.10;;
41943;SDS011;27636;52.610;13.244;2024-02-23T20:01:22;6.50;;;1.73;;
41943;SDS011;27636;52.610;13.244;2024-02-23T20:06:26;1.77;;;1.17;;
41943;SDS011;27636;52.610;13.244;2024-02-23T20:11:31;3.80;;;1.63;;
41943;SDS011;27636;52.610;13.244;2024-02-23T20:16:35;2.53;;;1.15;;
41943;SDS011;27636;52.610;13.244;2024-02-23T20:21:39;3.42;;;1.55;;
41943;SDS011;27636;52.610;13.244;2024-02-23T20:26:44;1.25;;;0.90;;
41943;SDS011;27636;52.610;13.244;2024-02-23T20:31:49;4.50;;;1.23;;
41943;SDS011;27636;52.610;13.244;2024-02-23T20:36:52;2.72;;;1.17;;
41943;SDS011;27636;52.610;13.244;2024-02-23T20:41:57;6.78;;;1.73;;
41943;SDS011;27636;52.610;13.244;2024-02-23T20:47:02;2.45;;;1.00;;
41943;SDS011;27636;52.610;13.244;2024-02-23T20:52:06;2.30;;;1.30;;
41943;SDS011;27636;52.610;13.244;2024-02-23T20:57:12;5.72;;;1.85;;
41943;SDS011;27636;52.610;13.244;2024-02-23T21:02:16;4.22;;;2.25;;
41943;SDS011;27636;52.610;13.244;2024-02-23T21:07:25;6.20;;;2.70;;
41943;SDS011;27636;52.610;13.244;2024-02-23T21:12:31;3.43;;;1.50;;
41943;SDS011;27636;52.610;13.244;2024-02-23T21:17:35;9.05;;;0.98;;
41943;SDS011;27636;52.610;13.244;2024-02-23T21:22:39;2.78;;;1.05;;
41943;SDS011;27636;52.610;13.244;2024-02-23T21:27:44;2.72;;;1.10;;
41943;SDS011;27636;52.610;13.244;2024-02-23T21:32:49;2.40;;;0.93;;
41943;SDS011;27636;52.610;13.244;2024-02-23T21:37:54;4.50;;;1.58;;
41943;SDS011;27636;52.610;13.244;2024-02-23T21:42:59;2.30;;;1.15;;
41943;SDS011;27636;52.610;13.244;2024-02-23T21:48:04;1.27;;;0.70;;
41943;SDS011;27636;52.610;13.244;2024-02-23T21:53:08;3.37;;;1.40;;
41943;SDS011;27636;52.610;13.244;2024-02-23T21:58:13;6.82;;;1.08;;
41943;SDS011;27636;52.610;13.244;2024-02-23T22:03:17;3.22;;;1.60;;
41943;SDS011;27636;52.610;13.244;2024-02-23T22:08:22;2.72;;;1.40;;
41943;SDS011;27636;52.610;13.244;2024-02-23T22:13:28;9.77;;;0.90;;
41943;SDS011;27636;52.610;13.244;2024-02-23T22:18:31;4.93;;;1.30;;
41943;SDS011;27636;52.610;13.244;2024-02-23T22:23:36;1.65;;;1.00;;
41943;SDS011;27636;52.610;13.244;2024-02-23T22:28:42;2.28;;;1.30;;
41943;SDS011;27636;52.610;13.244;2024-02-23T22:33:46;4.63;;;1.98;;
41943;SDS011;27636;52.610;13.244;2024-02-23T22:38:50;4.72;;;1.65;;
41943;SDS011;27636;52.610;13.244;2024-02-23T22:43:55;1.75;;;1.23;;
41943;SDS011;27636;52.610;13.244;2024-02-23T22:48:59;3.67;;;1.10;;
41943;SDS011;27636;52.610;13.244;2024-02-23T22:54:04;4.28;;;0.90;;
41943;SDS011;27636;52.610;13.244;2024-02-23T22:59:10;3.13;;;1.42;;
41943;SDS011;27636;52.610;13.244;2024-02-23T23:04:14;0.70;;;0.68;;
41943;SDS011;27636;52.610;13.244;2024-02-23T23:09:18;2.17;;;1.02;;
41943;SDS011;27636;52.610;13.244;2024-02-23T23:14:24;2.33;;;1.10;;
41943;SDS011;27636;52.610;13.244;2024-02-23T23:19:28;1.40;;;0.88;;
41943;SDS011;27636;52.610;13.244;2024-02-23T23:24:32;4.30;;;1.70;;
41943;SDS011;27636;52.610;13.244;2024-02-23T23:34:42;3.08;;;0.98;;
41943;SDS011;27636;52.610;13.244;2024-02-23T23:39:46;5.30;;;1.45;;
41943;SDS011;27636;52.610;13.244;2024-02-23T23:44:52;6.30;;;1.60;;
41943;SDS011;27636;52.610;13.244;2024-02-23T23:49:56;3.13;;;1.27;;
41943;SDS011;27636;52.610;13.244;2024-02-23T23:55:00;3.67;;;1.30;;
